createdAt,value
2018-01-21T00:00:50.299Z,4.73
2018-01-21T00:03:18.753Z,5.13
2018-01-21T00:05:47.221Z,5.73
2018-01-21T00:08:15.665Z,5.33
2018-01-21T00:10:44.091Z,5.53
2018-01-21T00:13:12.476Z,5.50
2018-01-21T00:15:40.901Z,6.30
2018-01-21T00:18:09.350Z,6.23
2018-01-21T00:20:37.776Z,6.07
2018-01-21T00:23:06.221Z,6.90
2018-01-21T00:25:34.719Z,7.03
2018-01-21T00:28:03.212Z,5.97
2018-01-21T00:30:31.700Z,6.43
2018-01-21T00:33:00.217Z,7.10
2018-01-21T00:35:28.643Z,6.53
2018-01-21T00:37:57.129Z,6.70
2018-01-21T00:40:25.519Z,6.80
2018-01-21T00:42:53.949Z,7.20
2018-01-21T00:45:22.356Z,6.43
2018-01-21T00:47:50.792Z,8.17
2018-01-21T00:50:19.225Z,7.20
2018-01-21T00:52:47.648Z,9.03
2018-01-21T00:55:16.031Z,7.50
2018-01-21T00:57:44.452Z,8.63
2018-01-21T01:00:12.833Z,9.63
2018-01-21T01:02:41.325Z,8.50
2018-01-21T01:05:09.819Z,8.20
2018-01-21T01:07:38.273Z,8.00
2018-01-21T01:10:06.785Z,8.50
2018-01-21T01:12:35.295Z,8.43
2018-01-21T01:15:03.718Z,8.07
2018-01-21T01:17:32.159Z,8.53
2018-01-21T01:20:00.550Z,8.80
2018-01-21T01:22:29.009Z,8.80
2018-01-21T01:24:57.428Z,8.33
2018-01-21T01:27:25.890Z,8.27
2018-01-21T01:29:54.316Z,8.30
2018-01-21T01:32:28.182Z,7.77
2018-01-21T01:34:56.576Z,8.80
2018-01-21T01:37:24.967Z,9.60
2018-01-21T01:39:53.468Z,8.37
2018-01-21T01:42:21.848Z,9.10
2018-01-21T01:44:50.269Z,9.53
2018-01-21T01:47:18.706Z,7.67
2018-01-21T01:49:47.205Z,8.70
2018-01-21T01:52:15.644Z,9.00
2018-01-21T01:54:44.056Z,8.03
2018-01-21T01:57:12.533Z,8.40
2018-01-21T01:59:40.957Z,8.70
2018-01-21T02:02:09.402Z,6.97
2018-01-21T02:04:37.910Z,8.37
2018-01-21T02:07:06.297Z,8.90
2018-01-21T02:09:34.694Z,8.93
2018-01-21T02:12:03.112Z,6.67
2018-01-21T02:14:31.524Z,7.00
2018-01-21T02:16:59.971Z,6.87
2018-01-21T02:19:28.412Z,7.37
2018-01-21T02:21:56.814Z,7.33
2018-01-21T02:24:25.304Z,7.27
2018-01-21T02:26:53.709Z,6.43
2018-01-21T02:29:22.153Z,6.93
2018-01-21T02:31:50.649Z,7.13
2018-01-21T02:34:19.037Z,6.80
2018-01-21T02:36:47.476Z,6.87
2018-01-21T02:39:15.924Z,7.00
2018-01-21T02:41:44.323Z,6.93
2018-01-21T02:44:12.749Z,7.60
2018-01-21T02:46:41.236Z,9.50
2018-01-21T02:49:09.647Z,7.70
2018-01-21T02:51:38.087Z,8.47
2018-01-21T02:54:06.521Z,8.30
2018-01-21T02:56:37.885Z,8.93
2018-01-21T02:59:06.312Z,7.43
2018-01-21T03:01:34.710Z,8.10
2018-01-21T03:04:03.141Z,7.90
2018-01-21T03:06:31.577Z,8.40
2018-01-21T03:09:00.006Z,8.07
2018-01-21T03:11:28.466Z,8.47
2018-01-21T03:13:56.942Z,8.53
2018-01-21T03:16:25.332Z,7.93
2018-01-21T03:18:53.766Z,7.57
2018-01-21T03:21:22.245Z,8.97
2018-01-21T03:23:50.639Z,8.30
2018-01-21T03:26:19.060Z,9.83
2018-01-21T03:28:47.444Z,7.87
2018-01-21T03:31:15.869Z,8.33
2018-01-21T03:33:44.320Z,8.20
2018-01-21T03:36:12.761Z,8.97
2018-01-21T03:38:41.184Z,8.20
2018-01-21T03:41:09.620Z,8.13
2018-01-21T03:43:38.157Z,7.67
2018-01-21T03:46:06.565Z,8.57
2018-01-21T03:48:34.945Z,9.20
2018-01-21T03:51:03.381Z,9.10
2018-01-21T03:53:31.882Z,8.53
2018-01-21T03:56:00.277Z,9.30
2018-01-21T03:58:28.709Z,8.90
2018-01-21T04:00:57.231Z,9.43
2018-01-21T04:03:25.620Z,9.87
2018-01-21T04:05:54.189Z,11.07
2018-01-21T04:08:22.785Z,11.93
2018-01-21T04:10:51.230Z,10.60
2018-01-21T04:13:19.661Z,9.17
2018-01-21T04:15:48.114Z,8.87
2018-01-21T04:18:16.589Z,8.63
2018-01-21T04:20:44.954Z,9.63
2018-01-21T04:23:13.479Z,10.07
2018-01-21T04:25:41.887Z,10.03
2018-01-21T04:28:10.329Z,9.07
2018-01-21T04:30:38.762Z,10.23
2018-01-21T04:33:07.194Z,10.00
2018-01-21T04:35:35.617Z,10.03
2018-01-21T04:38:04.059Z,10.60
2018-01-21T04:40:32.489Z,9.77
2018-01-21T04:43:00.972Z,10.23
2018-01-21T04:45:29.487Z,9.83
2018-01-21T04:47:57.874Z,9.63
2018-01-21T04:50:26.273Z,9.77
2018-01-21T04:52:54.689Z,9.93
2018-01-21T04:55:23.191Z,10.33
2018-01-21T04:57:51.729Z,10.20
2018-01-21T05:00:20.880Z,10.80
2018-01-21T05:02:49.290Z,11.47
2018-01-21T05:05:17.818Z,11.30
2018-01-21T05:07:46.261Z,11.20
2018-01-21T05:10:14.700Z,11.67
2018-01-21T05:12:43.127Z,11.37
2018-01-21T05:15:11.563Z,10.80
2018-01-21T05:17:39.953Z,11.67
2018-01-21T05:20:08.397Z,11.47
2018-01-21T05:22:36.859Z,11.50
2018-01-21T05:25:05.292Z,10.43
2018-01-21T05:27:33.698Z,10.43
2018-01-21T05:30:02.131Z,10.27
2018-01-21T05:32:30.590Z,10.73
2018-01-21T05:34:59.080Z,11.10
2018-01-21T05:37:27.497Z,11.73
2018-01-21T05:39:56.006Z,11.13
2018-01-21T05:42:24.477Z,11.17
2018-01-21T05:44:52.969Z,11.23
2018-01-21T05:47:21.400Z,11.10
2018-01-21T05:49:49.873Z,11.00
2018-01-21T05:52:18.304Z,13.13
2018-01-21T05:54:46.818Z,10.20
2018-01-21T05:57:15.212Z,10.53
2018-01-21T05:59:43.721Z,11.80
2018-01-21T06:02:12.300Z,10.63
2018-01-21T06:04:40.749Z,11.50
2018-01-21T06:07:09.132Z,9.93
2018-01-21T06:09:37.587Z,10.20
2018-01-21T06:12:06.020Z,11.33
2018-01-21T06:14:34.437Z,11.33
2018-01-21T06:17:02.876Z,10.73
2018-01-21T06:19:31.349Z,11.67
2018-01-21T06:21:59.766Z,11.33
2018-01-21T06:24:28.249Z,10.40
2018-01-21T06:26:57.624Z,9.93
2018-01-21T06:29:26.141Z,10.73
2018-01-21T06:31:54.568Z,10.60
2018-01-21T06:34:23.012Z,10.43
2018-01-21T06:36:51.522Z,11.63
2018-01-21T06:39:19.980Z,11.60
2018-01-21T06:41:48.477Z,11.20
2018-01-21T06:44:16.949Z,11.47
2018-01-21T06:46:45.450Z,12.90
2018-01-21T06:49:13.850Z,12.20
2018-01-21T06:51:42.260Z,13.07
2018-01-21T06:54:10.713Z,14.20
2018-01-21T06:56:39.168Z,12.63
2018-01-21T06:59:07.642Z,14.57
2018-01-21T07:01:36.096Z,20.57
2018-01-21T07:04:04.524Z,23.20
2018-01-21T07:06:32.942Z,29.50
2018-01-21T07:09:01.413Z,24.10
2018-01-21T07:11:29.858Z,23.17
2018-01-21T07:13:58.284Z,21.53
2018-01-21T07:16:26.672Z,22.40
2018-01-21T07:18:55.112Z,19.37
2018-01-21T07:21:23.512Z,19.00
2018-01-21T07:23:51.964Z,21.00
2018-01-21T07:26:20.524Z,20.20
2018-01-21T07:28:48.968Z,21.57
2018-01-21T07:31:17.519Z,21.87
2018-01-21T07:33:45.916Z,21.37
2018-01-21T07:36:14.356Z,27.23
2018-01-21T07:38:42.760Z,23.27
2018-01-21T07:41:11.147Z,23.63
2018-01-21T07:43:39.651Z,22.53
2018-01-21T07:46:08.042Z,19.97
2018-01-21T07:48:36.509Z,23.57
2018-01-21T07:51:04.904Z,21.27
2018-01-21T07:53:33.421Z,19.87
2018-01-21T07:56:01.867Z,18.60
2018-01-21T07:58:30.364Z,19.90
2018-01-21T08:00:58.860Z,19.30
2018-01-21T08:03:27.333Z,18.43
2018-01-21T08:05:55.829Z,18.03
2018-01-21T08:08:24.283Z,17.77
2018-01-21T08:10:52.755Z,16.87
2018-01-21T08:13:21.247Z,21.60
2018-01-21T08:15:49.733Z,19.23
2018-01-21T08:18:18.226Z,20.47
2018-01-21T08:20:46.695Z,18.80
2018-01-21T08:23:15.088Z,18.10
2018-01-21T08:25:43.538Z,25.83
2018-01-21T08:28:12.073Z,31.57
2018-01-21T08:30:40.519Z,42.63
2018-01-21T08:33:09.010Z,39.87
2018-01-21T08:35:43.029Z,39.80
2018-01-21T08:38:16.933Z,34.67
2018-01-21T08:43:47.425Z,46.80
2018-01-21T08:46:15.922Z,39.83
2018-01-21T08:48:44.504Z,42.90
2018-01-21T08:51:12.986Z,42.53
2018-01-21T08:53:41.457Z,43.33
2018-01-21T08:56:09.888Z,36.13
2018-01-21T08:58:38.335Z,35.77
2018-01-21T09:01:06.850Z,33.83
2018-01-21T09:03:35.316Z,36.40
2018-01-21T09:06:03.744Z,34.53
2018-01-21T09:08:32.207Z,41.10
2018-01-21T09:11:00.659Z,42.77
2018-01-21T09:13:29.056Z,43.83
2018-01-21T09:15:57.552Z,45.30
2018-01-21T09:18:25.999Z,50.27
2018-01-21T09:20:54.453Z,45.33
2018-01-21T09:23:22.987Z,44.47
2018-01-21T09:25:51.412Z,45.03
2018-01-21T09:28:19.841Z,42.33
2018-01-21T09:30:48.260Z,42.10
2018-01-21T09:33:16.759Z,42.67
2018-01-21T09:35:45.205Z,40.63
2018-01-21T09:38:13.641Z,40.33
2018-01-21T09:40:42.053Z,40.03
2018-01-21T09:43:10.534Z,42.03
2018-01-21T09:45:39.035Z,42.30
2018-01-21T09:48:07.486Z,43.93
2018-01-21T09:50:35.880Z,43.07
2018-01-21T09:53:04.316Z,41.13
2018-01-21T09:55:32.777Z,47.43
2018-01-21T09:58:01.176Z,49.40
2018-01-21T10:00:29.641Z,44.87
2018-01-21T10:02:58.129Z,46.77
2018-01-21T10:05:26.577Z,45.50
2018-01-21T10:07:55.005Z,42.97
2018-01-21T10:10:23.460Z,43.30
2018-01-21T10:12:51.950Z,41.67
2018-01-21T10:15:20.712Z,42.97
2018-01-21T10:17:49.144Z,39.43
2018-01-21T10:20:17.548Z,42.33
2018-01-21T10:22:45.988Z,37.53
2018-01-21T10:25:14.403Z,42.43
2018-01-21T10:27:42.832Z,41.07
2018-01-21T10:30:11.265Z,40.67
2018-01-21T10:32:39.763Z,39.67
2018-01-21T10:35:08.213Z,38.03
2018-01-21T10:37:36.673Z,40.13
2018-01-21T10:40:05.146Z,41.67
2018-01-21T10:42:33.565Z,39.50
2018-01-21T10:45:02.025Z,38.43
2018-01-21T10:47:30.561Z,40.33
2018-01-21T10:49:59.020Z,37.90
2018-01-21T10:52:27.482Z,37.33
2018-01-21T10:54:55.948Z,39.17
2018-01-21T10:57:24.388Z,38.03
2018-01-21T10:59:52.791Z,39.07
2018-01-21T11:02:21.205Z,35.17
2018-01-21T11:04:49.709Z,36.83
2018-01-21T11:07:18.180Z,37.37
2018-01-21T11:09:46.563Z,43.70
2018-01-21T11:12:14.984Z,40.23
2018-01-21T11:14:43.369Z,49.97
2018-01-21T11:17:11.869Z,50.60
2018-01-21T11:19:40.317Z,49.00
2018-01-21T11:22:08.817Z,47.30
2018-01-21T11:24:37.265Z,53.00
2018-01-21T11:27:05.657Z,50.93
2018-01-21T11:29:34.100Z,52.50
2018-01-21T11:32:02.553Z,48.20
2018-01-21T11:34:30.949Z,48.23
2018-01-21T11:36:59.381Z,50.63
2018-01-21T11:39:27.853Z,53.20
2018-01-21T11:41:56.281Z,53.30
2018-01-21T11:44:24.762Z,53.07
2018-01-21T11:46:53.384Z,51.50
2018-01-21T11:49:21.873Z,53.63
2018-01-21T11:51:50.301Z,55.10
2018-01-21T11:54:18.720Z,55.17
2018-01-21T11:56:47.224Z,55.10
2018-01-21T11:59:15.688Z,58.63
2018-01-21T12:01:44.129Z,62.00
2018-01-21T12:04:12.618Z,57.30
2018-01-21T12:06:41.040Z,59.67
2018-01-21T12:09:09.485Z,63.20
2018-01-21T12:11:37.943Z,56.93
2018-01-21T12:14:06.416Z,64.47
2018-01-21T12:16:34.859Z,62.83
2018-01-21T12:19:03.267Z,62.73
2018-01-21T12:21:31.715Z,71.53
2018-01-21T12:24:00.185Z,79.83
2018-01-21T12:26:28.701Z,69.63
2018-01-21T12:28:57.177Z,72.93
2018-01-21T12:31:25.673Z,71.93
2018-01-21T12:33:54.110Z,78.47
2018-01-21T12:36:22.597Z,60.70
2018-01-21T12:38:51.054Z,73.03
2018-01-21T12:41:19.509Z,83.60
2018-01-21T12:43:48.005Z,69.67
2018-01-21T12:46:16.464Z,67.40
2018-01-21T12:48:44.873Z,67.43
2018-01-21T12:51:13.357Z,70.43
2018-01-21T12:53:41.849Z,69.53
2018-01-21T12:56:10.362Z,71.03
2018-01-21T12:58:38.855Z,68.53
2018-01-21T13:01:07.292Z,68.43
2018-01-21T13:03:35.716Z,64.70
2018-01-21T13:06:04.149Z,65.87
2018-01-21T13:08:32.591Z,66.70
2018-01-21T13:11:01.002Z,59.13
2018-01-21T13:13:29.513Z,61.30
2018-01-21T13:15:57.936Z,64.33
2018-01-21T13:18:26.420Z,67.77
2018-01-21T13:20:54.865Z,72.23
2018-01-21T13:23:23.331Z,69.23
2018-01-21T13:25:51.804Z,64.23
2018-01-21T13:28:20.232Z,62.93
2018-01-21T13:30:48.685Z,64.10
2018-01-21T13:33:17.136Z,55.10
2018-01-21T13:35:45.529Z,52.67
2018-01-21T13:38:14.025Z,49.03
2018-01-21T13:40:42.460Z,46.20
2018-01-21T13:43:10.916Z,48.90
2018-01-21T13:45:39.423Z,47.47
2018-01-21T13:48:07.894Z,48.27
2018-01-21T13:50:36.406Z,48.30
2018-01-21T13:53:04.801Z,52.60
2018-01-21T13:55:33.248Z,50.00
2018-01-21T13:58:01.656Z,49.17
2018-01-21T14:00:30.096Z,52.47
2018-01-21T14:02:58.506Z,50.40
2018-01-21T14:05:26.958Z,49.17
2018-01-21T14:07:55.385Z,49.67
2018-01-21T14:10:23.846Z,46.93
2018-01-21T14:12:52.301Z,56.33
2018-01-21T14:15:20.738Z,51.23
2018-01-21T14:17:49.181Z,55.10
2018-01-21T14:20:17.581Z,57.53
2018-01-21T14:22:45.984Z,55.07
2018-01-21T14:25:14.412Z,53.37
2018-01-21T14:27:42.815Z,54.53
2018-01-21T14:30:11.262Z,54.03
2018-01-21T14:32:39.725Z,56.17
2018-01-21T14:35:08.169Z,58.63
2018-01-21T14:37:36.625Z,56.17
2018-01-21T14:40:05.041Z,58.73
2018-01-21T14:42:33.489Z,63.43
2018-01-21T14:45:02.005Z,58.90
2018-01-21T14:47:31.414Z,61.97
2018-01-21T14:49:59.908Z,60.40
2018-01-21T14:52:28.300Z,59.10
2018-01-21T14:54:56.728Z,54.07
2018-01-21T14:57:25.136Z,61.83
2018-01-21T14:59:53.636Z,67.37
2018-01-21T15:02:22.079Z,77.97
2018-01-21T15:04:50.577Z,74.63
2018-01-21T15:07:19.056Z,78.13
2018-01-21T15:09:47.548Z,79.83
2018-01-21T15:12:15.952Z,71.70
2018-01-21T15:14:44.461Z,73.67
2018-01-21T15:17:12.853Z,64.37
2018-01-21T15:19:41.338Z,70.87
2018-01-21T15:22:09.833Z,75.93
2018-01-21T15:24:38.329Z,75.13
2018-01-21T15:27:06.749Z,84.63
2018-01-21T15:29:35.144Z,82.93
2018-01-21T15:32:03.620Z,79.70
2018-01-21T15:34:32.106Z,90.43
2018-01-21T15:37:00.509Z,78.97
2018-01-21T15:39:28.973Z,82.97
2018-01-21T15:41:57.380Z,80.43
2018-01-21T15:44:25.821Z,84.50
2018-01-21T15:46:54.409Z,85.67
2018-01-21T15:49:22.815Z,82.97
2018-01-21T15:51:51.260Z,83.73
2018-01-21T15:54:19.714Z,78.83
2018-01-21T15:56:48.151Z,93.33
2018-01-21T15:59:16.544Z,74.27
2018-01-21T16:01:44.981Z,78.00
2018-01-21T16:04:13.371Z,75.23
2018-01-21T16:06:41.815Z,71.73
2018-01-21T16:09:10.310Z,65.03
2018-01-21T16:11:38.769Z,81.53
2018-01-21T16:14:07.191Z,72.03
2018-01-21T16:16:35.682Z,81.27
2018-01-21T16:19:04.121Z,74.27
2018-01-21T16:21:32.517Z,77.83
2018-01-21T16:24:00.950Z,76.67
2018-01-21T16:26:29.405Z,68.40
2018-01-21T16:28:57.873Z,78.00
2018-01-21T16:31:26.310Z,78.87
2018-01-21T16:33:54.717Z,79.50
2018-01-21T16:36:33.936Z,80.43
2018-01-21T16:39:02.455Z,79.73
2018-01-21T16:41:30.961Z,91.33
2018-01-21T16:43:59.452Z,106.67
2018-01-21T16:46:27.910Z,108.20
2018-01-21T16:48:56.321Z,101.63
2018-01-21T16:51:24.725Z,108.40
2018-01-21T16:53:53.192Z,109.20
2018-01-21T16:56:21.600Z,117.93
2018-01-21T16:58:50.052Z,119.80
2018-01-21T17:01:18.465Z,104.57
2018-01-21T17:03:46.897Z,99.50
2018-01-21T17:06:15.337Z,98.10
2018-01-21T17:08:43.777Z,91.20
2018-01-21T17:11:12.184Z,75.47
2018-01-21T17:13:40.622Z,75.23
2018-01-21T17:16:09.121Z,80.60
2018-01-21T17:18:37.521Z,78.30
2018-01-21T17:21:05.952Z,77.93
2018-01-21T17:23:34.485Z,84.80
2018-01-21T17:26:02.961Z,82.60
2018-01-21T17:28:31.382Z,85.00
2018-01-21T17:30:59.881Z,83.53
2018-01-21T17:33:28.380Z,84.27
2018-01-21T17:35:56.840Z,78.07
2018-01-21T17:38:25.331Z,84.30
2018-01-21T17:40:53.836Z,81.63
2018-01-21T17:43:22.335Z,83.50
2018-01-21T17:45:50.777Z,80.17
2018-01-21T17:48:19.171Z,84.33
2018-01-21T17:50:47.616Z,79.00
2018-01-21T17:53:16.117Z,85.43
2018-01-21T17:55:44.550Z,88.10
2018-01-21T17:58:13.033Z,82.53
2018-01-21T18:00:41.566Z,81.43
2018-01-21T18:03:10.013Z,82.90
2018-01-21T18:05:38.399Z,86.07
2018-01-21T18:08:06.857Z,79.80
2018-01-21T18:10:35.345Z,83.97
2018-01-21T18:13:03.877Z,85.40
2018-01-21T18:15:32.328Z,76.27
2018-01-21T18:18:00.732Z,78.03
2018-01-21T18:20:29.325Z,76.77
2018-01-21T18:22:57.877Z,77.73
2018-01-21T18:25:26.273Z,71.97
2018-01-21T18:27:54.718Z,75.80
2018-01-21T18:30:23.115Z,76.47
2018-01-21T18:32:51.518Z,77.83
2018-01-21T18:35:19.962Z,84.77
2018-01-21T18:37:48.441Z,89.13
2018-01-21T18:40:16.885Z,95.23
2018-01-21T18:42:45.389Z,89.80
2018-01-21T18:45:13.820Z,78.07
2018-01-21T18:47:42.217Z,79.77
2018-01-21T18:50:10.648Z,83.10
2018-01-21T18:52:39.085Z,79.27
2018-01-21T18:55:07.614Z,82.10
2018-01-21T18:57:36.063Z,78.97
2018-01-21T19:00:04.512Z,92.17
2018-01-21T19:02:32.998Z,87.40
2018-01-21T19:05:01.452Z,79.10
2018-01-21T19:07:29.907Z,80.03
2018-01-21T19:09:58.308Z,80.70
2018-01-21T19:12:26.744Z,85.13
2018-01-21T19:14:55.137Z,81.50
2018-01-21T19:17:23.588Z,82.50
2018-01-21T19:19:51.988Z,79.00
2018-01-21T19:22:20.436Z,73.17
2018-01-21T19:24:48.892Z,63.13
2018-01-21T19:27:17.399Z,70.13
2018-01-21T19:29:45.905Z,77.07
2018-01-21T19:32:14.341Z,87.73
2018-01-21T19:34:42.736Z,91.00
2018-01-21T19:37:11.261Z,93.93
2018-01-21T19:39:41.265Z,102.90
2018-01-21T19:42:11.656Z,101.63
2018-01-21T19:44:40.108Z,96.17
2018-01-21T19:47:08.561Z,92.57
2018-01-21T19:49:37.009Z,91.90
2018-01-21T19:52:05.501Z,82.53
2018-01-21T19:54:33.960Z,73.77
2018-01-21T19:57:02.357Z,73.37
2018-01-21T19:59:30.797Z,72.37
2018-01-21T20:01:59.253Z,68.27
2018-01-21T20:04:27.721Z,68.27
2018-01-21T20:06:56.278Z,66.37
2018-01-21T20:09:24.718Z,70.13
2018-01-21T20:11:53.141Z,67.17
2018-01-21T20:14:21.572Z,65.30
2018-01-21T20:16:49.988Z,64.83
2018-01-21T20:19:18.402Z,70.93
2018-01-21T20:21:46.829Z,64.50
2018-01-21T20:24:15.305Z,66.73
2018-01-21T20:26:43.704Z,66.40
2018-01-21T20:29:12.127Z,63.90
2018-01-21T20:31:40.599Z,59.67
2018-01-21T20:34:09.066Z,59.90
2018-01-21T20:36:37.493Z,64.87
2018-01-21T20:39:05.908Z,65.80
2018-01-21T20:41:34.356Z,71.23
2018-01-21T20:44:02.800Z,67.77
2018-01-21T20:46:31.235Z,70.03
2018-01-21T20:48:59.660Z,70.63
2018-01-21T20:51:33.532Z,66.43
2018-01-21T20:54:07.402Z,61.80
2018-01-21T20:56:35.807Z,62.13
2018-01-21T20:59:04.263Z,63.80
2018-01-21T21:01:32.661Z,63.20
2018-01-21T21:04:01.139Z,63.20
2018-01-21T21:06:29.686Z,70.60
2018-01-21T21:08:58.124Z,61.20
2018-01-21T21:11:26.621Z,62.67
2018-01-21T21:13:55.079Z,62.17
2018-01-21T21:16:23.517Z,65.53
2018-01-21T21:18:51.947Z,62.53
2018-01-21T21:21:20.381Z,59.47
2018-01-21T21:23:48.778Z,62.27
2018-01-21T21:26:17.208Z,58.47
2018-01-21T21:28:45.736Z,61.97
2018-01-21T21:31:14.227Z,58.80
2018-01-21T21:33:42.689Z,60.77
2018-01-21T21:36:11.169Z,57.87
2018-01-21T21:38:39.572Z,57.60
2018-01-21T21:41:08.151Z,62.57
2018-01-21T21:43:36.546Z,63.97
2018-01-21T21:46:04.969Z,63.13
2018-01-21T21:48:33.489Z,67.03
2018-01-21T21:51:01.881Z,64.13
2018-01-21T21:53:30.314Z,66.53
2018-01-21T21:55:58.837Z,66.40
2018-01-21T21:58:27.232Z,66.03
2018-01-21T22:00:55.714Z,70.00
2018-01-21T22:03:24.099Z,68.33
2018-01-21T22:05:52.605Z,70.33
2018-01-21T22:08:21.101Z,67.67
2018-01-21T22:10:49.576Z,64.87
2018-01-21T22:13:17.996Z,60.27
2018-01-21T22:15:46.452Z,56.50
2018-01-21T22:18:14.964Z,57.80
2018-01-21T22:20:43.544Z,51.53
2018-01-21T22:23:11.941Z,49.37
2018-01-21T22:25:40.404Z,49.10
2018-01-21T22:28:08.913Z,51.23
2018-01-21T22:30:37.323Z,51.80
2018-01-21T22:33:05.783Z,56.10
2018-01-21T22:35:34.249Z,56.23
2018-01-21T22:38:02.642Z,54.67
2018-01-21T22:40:31.069Z,52.60
2018-01-21T22:42:59.505Z,54.30
2018-01-21T22:45:27.946Z,56.30
2018-01-21T22:47:56.376Z,54.47
2018-01-21T22:50:24.912Z,52.87
2018-01-21T22:52:53.404Z,55.63
2018-01-21T22:55:21.820Z,58.40
2018-01-21T22:57:50.224Z,58.30
2018-01-21T23:00:18.709Z,64.17
2018-01-21T23:02:47.153Z,62.07
2018-01-21T23:05:15.584Z,62.87
2018-01-21T23:07:44.081Z,65.33
2018-01-21T23:10:12.513Z,63.70
2018-01-21T23:12:40.997Z,68.87
2018-01-21T23:15:09.560Z,67.33
2018-01-21T23:17:37.957Z,65.83
2018-01-21T23:20:06.349Z,58.57
2018-01-21T23:22:34.800Z,61.23
2018-01-21T23:25:03.344Z,60.97
2018-01-21T23:27:31.853Z,59.80
2018-01-21T23:30:00.254Z,58.40
2018-01-21T23:32:28.793Z,60.20
2018-01-21T23:34:57.263Z,56.13
2018-01-21T23:37:25.753Z,52.30
2018-01-21T23:39:54.157Z,54.27
2018-01-21T23:42:22.643Z,51.13
2018-01-21T23:44:51.034Z,49.73
2018-01-21T23:47:19.468Z,45.47
2018-01-21T23:49:47.896Z,46.23
2018-01-21T23:52:16.345Z,47.03
2018-01-21T23:54:44.768Z,38.50
2018-01-21T23:57:13.171Z,38.57
2018-01-21T23:59:41.675Z,44.10
